Seabourn Pride — C6FR5 — position and weather

sailwx.info

Track history (hours):
 
Tides and Currents Weather Stations Pressure Air Temp Water Temp Dewpoint Dewpoint Depression Visibility Wind Speed Wind Dir Waves Ship Positions

Seabourn Pride

Operator: Cunard Seabourn

Last reported at 2019-Nov-24 20:36 UTC. Time now 2019-Dec-12 09:14 UTC.
Position N 11°15' W 074°13'.
Warning: this ship's position is 17 days out of date.

Length 134 m; draft 5.6 m.

Type: Passenger vessel. MMSI: 311084000.

Date/timePositionNaut miles runAvg speedWind from/ knotsBaromVisibWave heightAir tempDewpointWater temp
2019-Nov-24 20:36N 11°15' W 074°13'0 0.0
2019-Nov-24 19:23N 11°15' W 074°13'0 0.0
2019-Nov-24 17:03N 11°15' W 074°13'0 0.0
2019-Nov-24 16:37N 11°15' W 074°13'  
2019-Nov-20 22:33N 18°30' W 066°10'5 8.5
2019-Nov-20 22:00N 18°28' W 066°07'0 0.2
2019-Nov-20 21:30N 18°28' W 066°07'0 0.0
2019-Nov-20 20:54N 18°28' W 066°07'0 0.0
2019-Nov-20 20:00N 18°28' W 066°07'0 0.0
2019-Nov-20 18:30N 18°28' W 066°07'0 0.0
2019-Nov-20 17:54N 18°28' W 066°07'0 0.0
2019-Nov-20 14:30N 18°28' W 066°07'0 0.0
2019-Nov-20 12:57N 18°28' W 066°07'0 0.0
2019-Nov-20 11:57N 18°28' W 066°07'15 3.8
2019-Nov-20 08:01N 18°32' W 065°52'4 7.7
2019-Nov-20 07:26N 18°33' W 065°47'7 7.5
2019-Nov-20 06:30N 18°33' W 065°40'15 7.6
2019-Nov-20 04:30N 18°35' W 065°24'7 7.3
2019-Nov-20 03:30N 18°36' W 065°16'7 7.2
2019-Nov-20 02:30N 18°36' W 065°08'24 8.0
2019-Nov-19 23:30N 18°35' W 064°43'78 4.0
2019-Nov-19 04:06N 18°05' W 063°27'2410.8
2019-Nov-19 01:54N 18°01' W 063°03'0 0.0
2019-Nov-18 23:15N 18°01' W 063°03'0 0.0
2019-Nov-18 22:21N 18°01' W 063°03'0 0.0
2019-Nov-18 21:26N 18°01' W 063°03'0 0.0
2019-Nov-18 19:56N 18°01' W 063°03'0 0.0
2019-Nov-18 19:11N 18°01' W 063°03'0 0.0
2019-Nov-18 15:32N 18°01' W 063°03'0 0.0
2019-Nov-18 15:18N 18°01' W 063°03'0 0.0
2019-Nov-18 12:52N 18°01' W 063°03'0 0.0
2019-Nov-18 12:22N 18°01' W 063°03'1 0.9
2019-Nov-18 10:58N 18°00' W 063°04'8 5.3
2019-Nov-18 09:30N 17°53' W 063°05'22 4.9
2019-Nov-18 04:58N 17°33' W 062°54'6 4.1
2019-Nov-18 03:24N 17°27' W 062°54'  
Track history (hours):
 
Tides and Currents Weather Stations Pressure Air Temp Water Temp Dewpoint Dewpoint Depression Visibility Wind Speed Wind Dir Waves Ship Positions

Seabourn Pride

Operator: Cunard Seabourn

Last reported at 2019-Nov-24 20:36 UTC. Time now 2019-Dec-12 09:14 UTC.
Position N 11°15' W 074°13'.
Warning: this ship's position is 17 days out of date.

Length 134 m; draft 5.6 m.

Type: Passenger vessel. MMSI: 311084000.

Date/timePositionNaut miles runAvg speedWind from/ knotsBaromVisibWave heightAir tempDewpointWater temp
2019-Nov-24 20:36N 11°15' W 074°13'0 0.0
2019-Nov-24 19:23N 11°15' W 074°13'0 0.0
2019-Nov-24 17:03N 11°15' W 074°13'0 0.0
2019-Nov-24 16:37N 11°15' W 074°13'  
2019-Nov-20 22:33N 18°30' W 066°10'5 8.5
2019-Nov-20 22:00N 18°28' W 066°07'0 0.2
2019-Nov-20 21:30N 18°28' W 066°07'0 0.0
2019-Nov-20 20:54N 18°28' W 066°07'0 0.0
2019-Nov-20 20:00N 18°28' W 066°07'0 0.0
2019-Nov-20 18:30N 18°28' W 066°07'0 0.0
2019-Nov-20 17:54N 18°28' W 066°07'0 0.0
2019-Nov-20 14:30N 18°28' W 066°07'0 0.0
2019-Nov-20 12:57N 18°28' W 066°07'0 0.0
2019-Nov-20 11:57N 18°28' W 066°07'15 3.8
2019-Nov-20 08:01N 18°32' W 065°52'4 7.7
2019-Nov-20 07:26N 18°33' W 065°47'7 7.5
2019-Nov-20 06:30N 18°33' W 065°40'15 7.6
2019-Nov-20 04:30N 18°35' W 065°24'7 7.3
2019-Nov-20 03:30N 18°36' W 065°16'7 7.2
2019-Nov-20 02:30N 18°36' W 065°08'24 8.0
2019-Nov-19 23:30N 18°35' W 064°43'78 4.0
2019-Nov-19 04:06N 18°05' W 063°27'2410.8
2019-Nov-19 01:54N 18°01' W 063°03'0 0.0
2019-Nov-18 23:15N 18°01' W 063°03'0 0.0
2019-Nov-18 22:21N 18°01' W 063°03'0 0.0
2019-Nov-18 21:26N 18°01' W 063°03'0 0.0
2019-Nov-18 19:56N 18°01' W 063°03'0 0.0
2019-Nov-18 19:11N 18°01' W 063°03'0 0.0
2019-Nov-18 15:32N 18°01' W 063°03'0 0.0
2019-Nov-18 15:18N 18°01' W 063°03'0 0.0
2019-Nov-18 12:52N 18°01' W 063°03'0 0.0
2019-Nov-18 12:22N 18°01' W 063°03'1 0.9
2019-Nov-18 10:58N 18°00' W 063°04'8 5.3
2019-Nov-18 09:30N 17°53' W 063°05'22 4.9
2019-Nov-18 04:58N 17°33' W 062°54'6 4.1
2019-Nov-18 03:24N 17°27' W 062°54'  

Dump ship's entire track history